sensor_id;sensor_type;location;lat;lon;timestamp;temperature;humidity
46117;DHT22;32591;48.102;11.772;2022-08-01T00:01:49;21.20;76.90
46117;DHT22;32591;48.102;11.772;2022-08-01T00:04:16;21.30;76.90
46117;DHT22;32591;48.102;11.772;2022-08-01T00:06:43;21.30;77.20
46117;DHT22;32591;48.102;11.772;2022-08-01T00:09:10;21.30;76.70
46117;DHT22;32591;48.102;11.772;2022-08-01T00:11:37;21.20;76.90
46117;DHT22;32591;48.102;11.772;2022-08-01T00:14:05;21.30;77.30
46117;DHT22;32591;48.102;11.772;2022-08-01T00:16:34;21.20;76.80
46117;DHT22;32591;48.102;11.772;2022-08-01T00:19:01;21.20;76.50
46117;DHT22;32591;48.102;11.772;2022-08-01T00:21:28;21.20;76.70
46117;DHT22;32591;48.102;11.772;2022-08-01T00:23:55;21.30;76.20
46117;DHT22;32591;48.102;11.772;2022-08-01T00:26:22;21.20;76.90
46117;DHT22;32591;48.102;11.772;2022-08-01T00:28:49;21.20;76.70
46117;DHT22;32591;48.102;11.772;2022-08-01T00:31:17;21.20;76.50
46117;DHT22;32591;48.102;11.772;2022-08-01T00:33:44;21.10;76.20
46117;DHT22;32591;48.102;11.772;2022-08-01T00:36:11;21.10;76.70
46117;DHT22;32591;48.102;11.772;2022-08-01T00:38:38;21.10;76.70
46117;DHT22;32591;48.102;11.772;2022-08-01T00:41:05;21.10;76.40
46117;DHT22;32591;48.102;11.772;2022-08-01T00:43:32;21.10;77.00
46117;DHT22;32591;48.102;11.772;2022-08-01T00:45:59;21.10;76.80
46117;DHT22;32591;48.102;11.772;2022-08-01T00:48:27;21.00;77.30
46117;DHT22;32591;48.102;11.772;2022-08-01T00:50:54;21.00;77.50
46117;DHT22;32591;48.102;11.772;2022-08-01T00:53:21;20.90;77.70
46117;DHT22;32591;48.102;11.772;2022-08-01T00:55:48;20.90;77.80
46117;DHT22;32591;48.102;11.772;2022-08-01T00:58:15;20.90;77.90
46117;DHT22;32591;48.102;11.772;2022-08-01T01:00:42;20.90;78.00
46117;DHT22;32591;48.102;11.772;2022-08-01T01:03:09;20.80;78.40
46117;DHT22;32591;48.102;11.772;2022-08-01T01:05:55;20.80;78.40
46117;DHT22;32591;48.102;11.772;2022-08-01T01:08:32;20.80;78.60
46117;DHT22;32591;48.102;11.772;2022-08-01T01:11:08;20.80;79.00
46117;DHT22;32591;48.102;11.772;2022-08-01T01:13:41;20.80;78.90
46117;DHT22;32591;48.102;11.772;2022-08-01T01:16:13;20.80;78.40
46117;DHT22;32591;48.102;11.772;2022-08-01T01:18:45;20.80;78.70
46117;DHT22;32591;48.102;11.772;2022-08-01T01:21:35;20.70;78.80
46117;DHT22;32591;48.102;11.772;2022-08-01T01:24:19;20.70;78.70
46117;DHT22;32591;48.102;11.772;2022-08-01T01:26:53;20.60;78.80
46117;DHT22;32591;48.102;11.772;2022-08-01T01:29:28;20.50;79.40
46117;DHT22;32591;48.102;11.772;2022-08-01T01:32:02;20.50;79.70
46117;DHT22;32591;48.102;11.772;2022-08-01T01:34:35;20.50;79.00
46117;DHT22;32591;48.102;11.772;2022-08-01T01:37:07;20.50;79.50
46117;DHT22;32591;48.102;11.772;2022-08-01T01:39:37;20.40;79.20
46117;DHT22;32591;48.102;11.772;2022-08-01T01:42:06;20.40;79.20
46117;DHT22;32591;48.102;11.772;2022-08-01T01:44:36;20.40;79.40
46117;DHT22;32591;48.102;11.772;2022-08-01T01:47:04;20.40;79.10
46117;DHT22;32591;48.102;11.772;2022-08-01T01:49:32;20.40;79.40
46117;DHT22;32591;48.102;11.772;2022-08-01T01:52:02;20.30;79.40
46117;DHT22;32591;48.102;11.772;2022-08-01T01:54:34;20.30;79.30
46117;DHT22;32591;48.102;11.772;2022-08-01T01:57:05;20.20;79.30
46117;DHT22;32591;48.102;11.772;2022-08-01T01:59:36;20.30;79.30
46117;DHT22;32591;48.102;11.772;2022-08-01T02:02:05;20.30;79.80
46117;DHT22;32591;48.102;11.772;2022-08-01T02:04:35;20.30;79.40
46117;DHT22;32591;48.102;11.772;2022-08-01T02:07:03;20.20;79.80
46117;DHT22;32591;48.102;11.772;2022-08-01T02:09:30;20.20;80.00
46117;DHT22;32591;48.102;11.772;2022-08-01T02:11:59;20.20;80.00
46117;DHT22;32591;48.102;11.772;2022-08-01T02:14:28;20.20;79.90
46117;DHT22;32591;48.102;11.772;2022-08-01T02:16:58;20.20;80.10
46117;DHT22;32591;48.102;11.772;2022-08-01T02:19:29;20.20;79.60
46117;DHT22;32591;48.102;11.772;2022-08-01T02:22:00;20.20;79.50
46117;DHT22;32591;48.102;11.772;2022-08-01T02:24:34;20.20;79.70
46117;DHT22;32591;48.102;11.772;2022-08-01T02:27:09;20.20;80.00
46117;DHT22;32591;48.102;11.772;2022-08-01T02:29:42;20.20;79.70
46117;DHT22;32591;48.102;11.772;2022-08-01T02:32:19;20.10;79.70
46117;DHT22;32591;48.102;11.772;2022-08-01T02:34:51;20.10;80.30
46117;DHT22;32591;48.102;11.772;2022-08-01T02:37:19;20.00;80.30
46117;DHT22;32591;48.102;11.772;2022-08-01T02:39:48;20.00;80.00
46117;DHT22;32591;48.102;11.772;2022-08-01T02:42:18;20.00;79.90
46117;DHT22;32591;48.102;11.772;2022-08-01T02:44:46;20.00;80.20
46117;DHT22;32591;48.102;11.772;2022-08-01T02:47:17;20.00;80.30
46117;DHT22;32591;48.102;11.772;2022-08-01T02:49:48;20.00;80.10
46117;DHT22;32591;48.102;11.772;2022-08-01T02:52:16;20.10;80.40
46117;DHT22;32591;48.102;11.772;2022-08-01T02:54:47;20.10;79.30
46117;DHT22;32591;48.102;11.772;2022-08-01T02:57:18;20.00;79.50
46117;DHT22;32591;48.102;11.772;2022-08-01T02:59:47;20.00;78.90
46117;DHT22;32591;48.102;11.772;2022-08-01T03:02:18;19.90;79.50
46117;DHT22;32591;48.102;11.772;2022-08-01T03:04:47;20.00;79.70
46117;DHT22;32591;48.102;11.772;2022-08-01T03:07:16;20.00;79.70
46117;DHT22;32591;48.102;11.772;2022-08-01T03:09:45;20.00;79.60
46117;DHT22;32591;48.102;11.772;2022-08-01T03:12:15;20.10;79.30
46117;DHT22;32591;48.102;11.772;2022-08-01T03:14:46;20.00;79.50
46117;DHT22;32591;48.102;11.772;2022-08-01T03:17:17;20.00;79.30
46117;DHT22;32591;48.102;11.772;2022-08-01T03:19:45;20.00;79.60
46117;DHT22;32591;48.102;11.772;2022-08-01T03:22:13;20.00;80.00
46117;DHT22;32591;48.102;11.772;2022-08-01T03:24:42;19.90;79.70
46117;DHT22;32591;48.102;11.772;2022-08-01T03:27:11;19.80;80.10
46117;DHT22;32591;48.102;11.772;2022-08-01T03:29:39;19.80;80.40
46117;DHT22;32591;48.102;11.772;2022-08-01T03:32:09;19.90;80.30
46117;DHT22;32591;48.102;11.772;2022-08-01T03:34:38;19.80;79.70
46117;DHT22;32591;48.102;11.772;2022-08-01T03:37:08;19.80;81.10
46117;DHT22;32591;48.102;11.772;2022-08-01T03:39:44;19.80;80.70
46117;DHT22;32591;48.102;11.772;2022-08-01T03:42:17;19.80;80.50
46117;DHT22;32591;48.102;11.772;2022-08-01T03:44:50;19.80;80.50
46117;DHT22;32591;48.102;11.772;2022-08-01T03:47:22;19.70;80.50
46117;DHT22;32591;48.102;11.772;2022-08-01T03:49:54;19.70;80.30
46117;DHT22;32591;48.102;11.772;2022-08-01T03:52:24;19.60;80.60
46117;DHT22;32591;48.102;11.772;2022-08-01T03:54:54;19.60;81.10
46117;DHT22;32591;48.102;11.772;2022-08-01T03:57:22;19.60;81.30
46117;DHT22;32591;48.102;11.772;2022-08-01T03:59:51;19.60;81.10
46117;DHT22;32591;48.102;11.772;2022-08-01T04:02:19;19.60;81.00
46117;DHT22;32591;48.102;11.772;2022-08-01T04:04:47;19.60;80.60
46117;DHT22;32591;48.102;11.772;2022-08-01T04:07:26;19.50;81.10
46117;DHT22;32591;48.102;11.772;2022-08-01T04:09:56;19.50;80.80
46117;DHT22;32591;48.102;11.772;2022-08-01T04:12:24;19.50;81.90
46117;DHT22;32591;48.102;11.772;2022-08-01T04:14:51;19.50;81.30
46117;DHT22;32591;48.102;11.772;2022-08-01T04:17:18;19.40;81.90
46117;DHT22;32591;48.102;11.772;2022-08-01T04:19:45;19.40;81.80
46117;DHT22;32591;48.102;11.772;2022-08-01T04:22:13;19.40;81.60
46117;DHT22;32591;48.102;11.772;2022-08-01T04:24:47;19.40;82.00
46117;DHT22;32591;48.102;11.772;2022-08-01T04:27:19;19.40;81.40
46117;DHT22;32591;48.102;11.772;2022-08-01T04:29:51;19.30;81.70
46117;DHT22;32591;48.102;11.772;2022-08-01T04:32:21;19.30;81.70
46117;DHT22;32591;48.102;11.772;2022-08-01T04:34:49;19.30;81.90
46117;DHT22;32591;48.102;11.772;2022-08-01T04:37:17;19.30;81.40
46117;DHT22;32591;48.102;11.772;2022-08-01T04:39:47;19.30;82.30
46117;DHT22;32591;48.102;11.772;2022-08-01T04:42:15;19.30;82.10
46117;DHT22;32591;48.102;11.772;2022-08-01T04:44:42;19.30;81.60
46117;DHT22;32591;48.102;11.772;2022-08-01T04:47:09;19.40;81.70
46117;DHT22;32591;48.102;11.772;2022-08-01T04:49:37;19.30;81.50
46117;DHT22;32591;48.102;11.772;2022-08-01T04:52:04;19.30;81.70
46117;DHT22;32591;48.102;11.772;2022-08-01T04:54:33;19.30;81.30
46117;DHT22;32591;48.102;11.772;2022-08-01T04:57:04;19.30;81.40
46117;DHT22;32591;48.102;11.772;2022-08-01T04:59:32;19.40;81.30
46117;DHT22;32591;48.102;11.772;2022-08-01T05:02:06;19.30;81.70
46117;DHT22;32591;48.102;11.772;2022-08-01T05:04:33;19.30;81.60
46117;DHT22;32591;48.102;11.772;2022-08-01T05:07:01;19.40;81.90
46117;DHT22;32591;48.102;11.772;2022-08-01T05:09:28;19.40;81.50
46117;DHT22;32591;48.102;11.772;2022-08-01T05:11:56;19.30;81.60
46117;DHT22;32591;48.102;11.772;2022-08-01T05:14:25;19.40;81.80
46117;DHT22;32591;48.102;11.772;2022-08-01T05:16:52;19.40;82.00
46117;DHT22;32591;48.102;11.772;2022-08-01T05:19:20;19.40;81.80
46117;DHT22;32591;48.102;11.772;2022-08-01T05:21:47;19.50;81.20
46117;DHT22;32591;48.102;11.772;2022-08-01T05:24:14;19.60;81.20
46117;DHT22;32591;48.102;11.772;2022-08-01T05:26:41;19.60;81.40
46117;DHT22;32591;48.102;11.772;2022-08-01T05:29:08;19.60;81.60
46117;DHT22;32591;48.102;11.772;2022-08-01T05:31:36;19.60;81.20
46117;DHT22;32591;48.102;11.772;2022-08-01T05:34:03;19.60;81.10
46117;DHT22;32591;48.102;11.772;2022-08-01T05:36:30;19.60;81.10
46117;DHT22;32591;48.102;11.772;2022-08-01T05:38:57;19.70;81.50
46117;DHT22;32591;48.102;11.772;2022-08-01T05:41:24;19.70;81.00
46117;DHT22;32591;48.102;11.772;2022-08-01T05:43:51;19.80;80.50
46117;DHT22;32591;48.102;11.772;2022-08-01T05:46:18;19.80;81.10
46117;DHT22;32591;48.102;11.772;2022-08-01T05:48:46;19.80;80.70
46117;DHT22;32591;48.102;11.772;2022-08-01T05:51:13;19.90;80.60
46117;DHT22;32591;48.102;11.772;2022-08-01T05:53:40;19.90;80.60
46117;DHT22;32591;48.102;11.772;2022-08-01T05:56:07;20.00;80.70
46117;DHT22;32591;48.102;11.772;2022-08-01T05:58:34;20.10;80.50
46117;DHT22;32591;48.102;11.772;2022-08-01T06:01:01;20.20;80.00
46117;DHT22;32591;48.102;11.772;2022-08-01T06:03:28;20.40;79.50
46117;DHT22;32591;48.102;11.772;2022-08-01T06:05:58;20.50;79.00
46117;DHT22;32591;48.102;11.772;2022-08-01T06:08:25;20.60;78.50
46117;DHT22;32591;48.102;11.772;2022-08-01T06:10:52;20.70;78.30
46117;DHT22;32591;48.102;11.772;2022-08-01T06:13:20;20.80;77.70
46117;DHT22;32591;48.102;11.772;2022-08-01T06:15:47;20.90;77.60
46117;DHT22;32591;48.102;11.772;2022-08-01T06:18:15;21.00;76.80
46117;DHT22;32591;48.102;11.772;2022-08-01T06:20:42;21.00;77.10
46117;DHT22;32591;48.102;11.772;2022-08-01T06:23:10;21.10;76.30
46117;DHT22;32591;48.102;11.772;2022-08-01T06:25:37;21.30;76.40
46117;DHT22;32591;48.102;11.772;2022-08-01T06:28:04;21.40;75.10
46117;DHT22;32591;48.102;11.772;2022-08-01T06:30:31;21.50;75.40
46117;DHT22;32591;48.102;11.772;2022-08-01T06:32:58;21.70;74.50
46117;DHT22;32591;48.102;11.772;2022-08-01T06:35:25;21.80;73.80
46117;DHT22;32591;48.102;11.772;2022-08-01T06:37:53;21.90;73.40
46117;DHT22;32591;48.102;11.772;2022-08-01T06:40:22;21.90;73.10
46117;DHT22;32591;48.102;11.772;2022-08-01T06:42:49;21.90;73.20
46117;DHT22;32591;48.102;11.772;2022-08-01T06:45:16;22.10;72.60
46117;DHT22;32591;48.102;11.772;2022-08-01T06:47:44;22.10;73.10
46117;DHT22;32591;48.102;11.772;2022-08-01T06:50:12;22.20;72.20
46117;DHT22;32591;48.102;11.772;2022-08-01T06:52:40;22.30;72.20
46117;DHT22;32591;48.102;11.772;2022-08-01T06:55:08;22.30;72.00
46117;DHT22;32591;48.102;11.772;2022-08-01T06:57:45;22.40;72.00
46117;DHT22;32591;48.102;11.772;2022-08-01T07:00:13;22.50;71.40
46117;DHT22;32591;48.102;11.772;2022-08-01T07:02:42;22.50;71.00
46117;DHT22;32591;48.102;11.772;2022-08-01T07:05:09;22.60;71.50
46117;DHT22;32591;48.102;11.772;2022-08-01T07:07:36;22.70;71.40
46117;DHT22;32591;48.102;11.772;2022-08-01T07:10:04;22.80;70.70
46117;DHT22;32591;48.102;11.772;2022-08-01T07:12:32;22.90;70.70
46117;DHT22;32591;48.102;11.772;2022-08-01T07:15:00;22.90;70.10
46117;DHT22;32591;48.102;11.772;2022-08-01T07:17:27;22.90;70.30
46117;DHT22;32591;48.102;11.772;2022-08-01T07:19:54;22.90;70.20
46117;DHT22;32591;48.102;11.772;2022-08-01T07:22:21;22.80;70.20
46117;DHT22;32591;48.102;11.772;2022-08-01T07:24:48;22.90;70.20
46117;DHT22;32591;48.102;11.772;2022-08-01T07:27:15;22.90;70.40
46117;DHT22;32591;48.102;11.772;2022-08-01T07:29:42;22.90;70.10
46117;DHT22;32591;48.102;11.772;2022-08-01T07:32:10;23.00;70.30
46117;DHT22;32591;48.102;11.772;2022-08-01T07:34:37;23.20;70.00
46117;DHT22;32591;48.102;11.772;2022-08-01T07:37:04;23.30;69.40
46117;DHT22;32591;48.102;11.772;2022-08-01T07:39:31;23.30;69.60
46117;DHT22;32591;48.102;11.772;2022-08-01T07:41:58;23.30;69.50
46117;DHT22;32591;48.102;11.772;2022-08-01T07:44:25;23.40;69.30
46117;DHT22;32591;48.102;11.772;2022-08-01T07:46:52;23.40;68.80
46117;DHT22;32591;48.102;11.772;2022-08-01T07:49:20;23.50;68.60
46117;DHT22;32591;48.102;11.772;2022-08-01T07:51:47;23.60;68.60
46117;DHT22;32591;48.102;11.772;2022-08-01T07:54:15;23.70;68.50
46117;DHT22;32591;48.102;11.772;2022-08-01T07:56:41;23.80;68.00
46117;DHT22;32591;48.102;11.772;2022-08-01T07:59:08;23.70;68.10
46117;DHT22;32591;48.102;11.772;2022-08-01T08:01:35;23.70;68.30
46117;DHT22;32591;48.102;11.772;2022-08-01T08:04:02;23.70;67.80
46117;DHT22;32591;48.102;11.772;2022-08-01T08:06:31;23.70;68.30
46117;DHT22;32591;48.102;11.772;2022-08-01T08:08:58;23.70;68.20
46117;DHT22;32591;48.102;11.772;2022-08-01T08:11:25;23.70;68.00
46117;DHT22;32591;48.102;11.772;2022-08-01T08:13:52;23.80;68.30
46117;DHT22;32591;48.102;11.772;2022-08-01T08:16:18;23.80;67.60
46117;DHT22;32591;48.102;11.772;2022-08-01T08:18:46;23.90;67.20
46117;DHT22;32591;48.102;11.772;2022-08-01T08:21:13;24.10;67.00
46117;DHT22;32591;48.102;11.772;2022-08-01T08:23:41;24.20;66.50
46117;DHT22;32591;48.102;11.772;2022-08-01T08:26:25;24.20;66.50
46117;DHT22;32591;48.102;11.772;2022-08-01T08:28:52;24.40;66.70
46117;DHT22;32591;48.102;11.772;2022-08-01T08:31:19;24.50;66.50
46117;DHT22;32591;48.102;11.772;2022-08-01T08:33:46;24.60;64.70
46117;DHT22;32591;48.102;11.772;2022-08-01T08:36:13;24.70;65.60
46117;DHT22;32591;48.102;11.772;2022-08-01T08:38:42;24.60;64.90
46117;DHT22;32591;48.102;11.772;2022-08-01T08:41:09;24.70;65.20
46117;DHT22;32591;48.102;11.772;2022-08-01T08:43:36;24.70;65.00
46117;DHT22;32591;48.102;11.772;2022-08-01T08:46:03;24.70;65.00
46117;DHT22;32591;48.102;11.772;2022-08-01T08:48:31;24.90;64.60
46117;DHT22;32591;48.102;11.772;2022-08-01T08:50:59;25.00;64.80
46117;DHT22;32591;48.102;11.772;2022-08-01T08:53:27;25.00;64.70
46117;DHT22;32591;48.102;11.772;2022-08-01T08:55:57;25.20;64.00
46117;DHT22;32591;48.102;11.772;2022-08-01T08:58:25;25.30;63.40
46117;DHT22;32591;48.102;11.772;2022-08-01T09:00:53;25.30;62.60
46117;DHT22;32591;48.102;11.772;2022-08-01T09:03:21;25.20;63.10
46117;DHT22;32591;48.102;11.772;2022-08-01T09:05:48;25.20;63.30
46117;DHT22;32591;48.102;11.772;2022-08-01T09:08:15;25.30;62.50
46117;DHT22;32591;48.102;11.772;2022-08-01T09:10:41;25.30;63.20
46117;DHT22;32591;48.102;11.772;2022-08-01T09:13:11;25.40;62.90
46117;DHT22;32591;48.102;11.772;2022-08-01T09:15:41;25.50;61.80
46117;DHT22;32591;48.102;11.772;2022-08-01T09:18:25;25.60;61.70
46117;DHT22;32591;48.102;11.772;2022-08-01T09:21:11;25.60;61.50
46117;DHT22;32591;48.102;11.772;2022-08-01T09:23:42;25.70;61.50
46117;DHT22;32591;48.102;11.772;2022-08-01T09:26:12;25.80;60.50
46117;DHT22;32591;48.102;11.772;2022-08-01T09:28:42;25.80;60.30
46117;DHT22;32591;48.102;11.772;2022-08-01T09:31:12;25.90;60.70
46117;DHT22;32591;48.102;11.772;2022-08-01T09:33:51;26.10;60.90
46117;DHT22;32591;48.102;11.772;2022-08-01T09:36:21;26.10;59.70
46117;DHT22;32591;48.102;11.772;2022-08-01T09:38:49;26.30;59.20
46117;DHT22;32591;48.102;11.772;2022-08-01T09:41:19;26.50;59.40
46117;DHT22;32591;48.102;11.772;2022-08-01T09:43:56;26.40;59.10
46117;DHT22;32591;48.102;11.772;2022-08-01T09:46:25;26.40;58.00
46117;DHT22;32591;48.102;11.772;2022-08-01T09:48:56;26.40;58.60
46117;DHT22;32591;48.102;11.772;2022-08-01T09:51:29;26.40;58.30
46117;DHT22;32591;48.102;11.772;2022-08-01T09:53:57;26.40;58.20
46117;DHT22;32591;48.102;11.772;2022-08-01T09:56:25;26.40;58.30
46117;DHT22;32591;48.102;11.772;2022-08-01T09:58:56;26.50;58.20
46117;DHT22;32591;48.102;11.772;2022-08-01T10:01:24;26.50;59.20
46117;DHT22;32591;48.102;11.772;2022-08-01T10:04:10;26.60;59.50
46117;DHT22;32591;48.102;11.772;2022-08-01T10:06:40;26.60;58.70
46117;DHT22;32591;48.102;11.772;2022-08-01T10:09:10;26.60;58.90
46117;DHT22;32591;48.102;11.772;2022-08-01T10:11:39;26.40;58.60
46117;DHT22;32591;48.102;11.772;2022-08-01T10:14:09;26.30;58.40
46117;DHT22;32591;48.102;11.772;2022-08-01T10:16:38;26.40;58.80
46117;DHT22;32591;48.102;11.772;2022-08-01T10:19:06;26.60;59.40
46117;DHT22;32591;48.102;11.772;2022-08-01T10:21:36;26.90;57.80
46117;DHT22;32591;48.102;11.772;2022-08-01T10:24:05;26.80;57.30
46117;DHT22;32591;48.102;11.772;2022-08-01T10:26:33;26.80;57.30
46117;DHT22;32591;48.102;11.772;2022-08-01T10:29:01;26.70;56.70
46117;DHT22;32591;48.102;11.772;2022-08-01T10:31:30;26.90;57.00
46117;DHT22;32591;48.102;11.772;2022-08-01T10:33:59;26.70;56.50
46117;DHT22;32591;48.102;11.772;2022-08-01T10:36:27;26.70;55.90
46117;DHT22;32591;48.102;11.772;2022-08-01T10:38:54;26.60;57.50
46117;DHT22;32591;48.102;11.772;2022-08-01T10:41:22;26.50;58.40
46117;DHT22;32591;48.102;11.772;2022-08-01T10:43:51;26.40;58.20
46117;DHT22;32591;48.102;11.772;2022-08-01T10:46:19;26.70;57.80
46117;DHT22;32591;48.102;11.772;2022-08-01T10:48:55;26.90;56.90
46117;DHT22;32591;48.102;11.772;2022-08-01T10:51:27;26.90;56.80
46117;DHT22;32591;48.102;11.772;2022-08-01T10:53:54;26.70;57.60
46117;DHT22;32591;48.102;11.772;2022-08-01T10:56:23;26.60;56.60
46117;DHT22;32591;48.102;11.772;2022-08-01T10:59:00;26.60;57.20
46117;DHT22;32591;48.102;11.772;2022-08-01T11:01:30;26.60;57.50
46117;DHT22;32591;48.102;11.772;2022-08-01T11:04:02;26.70;56.50
46117;DHT22;32591;48.102;11.772;2022-08-01T11:06:46;27.00;55.70
46117;DHT22;32591;48.102;11.772;2022-08-01T11:09:23;27.10;56.10
46117;DHT22;32591;48.102;11.772;2022-08-01T11:12:00;26.80;55.80
46117;DHT22;32591;48.102;11.772;2022-08-01T11:14:31;26.90;56.40
46117;DHT22;32591;48.102;11.772;2022-08-01T11:17:32;27.10;55.00
46117;DHT22;32591;48.102;11.772;2022-08-01T11:20:06;27.40;55.50
46117;DHT22;32591;48.102;11.772;2022-08-01T11:28:44;27.90;53.40
46117;DHT22;32591;48.102;11.772;2022-08-01T11:31:28;28.00;54.10
46117;DHT22;32591;48.102;11.772;2022-08-01T11:33:57;27.90;54.90
46117;DHT22;32591;48.102;11.772;2022-08-01T11:36:25;27.80;54.60
46117;DHT22;32591;48.102;11.772;2022-08-01T11:39:13;27.50;55.70
46117;DHT22;32591;48.102;11.772;2022-08-01T11:41:43;27.60;55.20
46117;DHT22;32591;48.102;11.772;2022-08-01T11:44:16;27.80;55.10
46117;DHT22;32591;48.102;11.772;2022-08-01T11:46:57;28.00;53.20
46117;DHT22;32591;48.102;11.772;2022-08-01T11:49:31;27.90;52.90
46117;DHT22;32591;48.102;11.772;2022-08-01T11:52:04;27.90;54.70
46117;DHT22;32591;48.102;11.772;2022-08-01T11:54:33;27.90;54.40
46117;DHT22;32591;48.102;11.772;2022-08-01T11:57:09;28.00;53.90
46117;DHT22;32591;48.102;11.772;2022-08-01T11:59:40;28.10;53.40
46117;DHT22;32591;48.102;11.772;2022-08-01T12:02:19;27.90;52.90
46117;DHT22;32591;48.102;11.772;2022-08-01T12:04:48;27.80;52.80
46117;DHT22;32591;48.102;11.772;2022-08-01T12:07:19;28.00;53.00
46117;DHT22;32591;48.102;11.772;2022-08-01T12:09:46;28.10;53.90
46117;DHT22;32591;48.102;11.772;2022-08-01T12:12:17;28.20;52.90
46117;DHT22;32591;48.102;11.772;2022-08-01T12:14:45;28.60;52.50
46117;DHT22;32591;48.102;11.772;2022-08-01T12:17:21;28.70;51.30
46117;DHT22;32591;48.102;11.772;2022-08-01T12:19:55;28.70;50.70
46117;DHT22;32591;48.102;11.772;2022-08-01T12:22:24;28.80;51.30
46117;DHT22;32591;48.102;11.772;2022-08-01T12:24:51;29.20;51.10
46117;DHT22;32591;48.102;11.772;2022-08-01T12:27:26;29.20;49.90
46117;DHT22;32591;48.102;11.772;2022-08-01T12:29:55;29.00;48.40
46117;DHT22;32591;48.102;11.772;2022-08-01T12:32:24;28.80;48.20
46117;DHT22;32591;48.102;11.772;2022-08-01T12:34:54;28.40;49.80
46117;DHT22;32591;48.102;11.772;2022-08-01T12:37:23;28.20;50.90
46117;DHT22;32591;48.102;11.772;2022-08-01T12:39:50;28.20;50.60
46117;DHT22;32591;48.102;11.772;2022-08-01T12:42:17;28.20;50.40
46117;DHT22;32591;48.102;11.772;2022-08-01T12:44:46;28.40;50.10
46117;DHT22;32591;48.102;11.772;2022-08-01T12:47:17;28.70;49.70
46117;DHT22;32591;48.102;11.772;2022-08-01T12:49:45;29.00;48.70
46117;DHT22;32591;48.102;11.772;2022-08-01T12:52:13;29.20;47.90
46117;DHT22;32591;48.102;11.772;2022-08-01T12:55:07;29.30;47.70
46117;DHT22;32591;48.102;11.772;2022-08-01T12:57:37;29.10;47.60
46117;DHT22;32591;48.102;11.772;2022-08-01T13:00:14;29.20;48.00
46117;DHT22;32591;48.102;11.772;2022-08-01T13:03:01;29.20;47.90
46117;DHT22;32591;48.102;11.772;2022-08-01T13:05:41;29.00;48.50
46117;DHT22;32591;48.102;11.772;2022-08-01T13:08:10;28.80;47.50
46117;DHT22;32591;48.102;11.772;2022-08-01T13:10:40;28.60;48.10
46117;DHT22;32591;48.102;11.772;2022-08-01T13:13:08;28.30;47.40
46117;DHT22;32591;48.102;11.772;2022-08-01T13:15:36;28.20;46.90
46117;DHT22;32591;48.102;11.772;2022-08-01T13:18:26;28.10;47.30
46117;DHT22;32591;48.102;11.772;2022-08-01T13:21:15;28.20;48.50
46117;DHT22;32591;48.102;11.772;2022-08-01T13:24:00;28.30;48.90
46117;DHT22;32591;48.102;11.772;2022-08-01T13:26:43;28.50;48.40
46117;DHT22;32591;48.102;11.772;2022-08-01T13:29:12;28.70;47.30
46117;DHT22;32591;48.102;11.772;2022-08-01T13:31:41;28.60;47.30
46117;DHT22;32591;48.102;11.772;2022-08-01T13:34:08;28.40;47.60
46117;DHT22;32591;48.102;11.772;2022-08-01T13:36:36;28.30;47.70
46117;DHT22;32591;48.102;11.772;2022-08-01T13:39:04;28.10;48.00
46117;DHT22;32591;48.102;11.772;2022-08-01T13:41:51;27.90;48.20
46117;DHT22;32591;48.102;11.772;2022-08-01T13:44:18;27.80;49.40
46117;DHT22;32591;48.102;11.772;2022-08-01T13:46:45;27.70;49.00
46117;DHT22;32591;48.102;11.772;2022-08-01T13:49:13;27.50;50.00
46117;DHT22;32591;48.102;11.772;2022-08-01T13:51:40;27.30;51.10
46117;DHT22;32591;48.102;11.772;2022-08-01T13:54:07;27.30;52.10
46117;DHT22;32591;48.102;11.772;2022-08-01T13:56:34;27.10;53.40
46117;DHT22;32591;48.102;11.772;2022-08-01T13:59:03;27.00;52.70
46117;DHT22;32591;48.102;11.772;2022-08-01T14:01:30;26.80;51.70
46117;DHT22;32591;48.102;11.772;2022-08-01T14:03:57;26.70;51.30
46117;DHT22;32591;48.102;11.772;2022-08-01T14:06:24;26.60;49.30
46117;DHT22;32591;48.102;11.772;2022-08-01T14:08:51;26.60;49.60
46117;DHT22;32591;48.102;11.772;2022-08-01T14:11:18;26.50;50.30
46117;DHT22;32591;48.102;11.772;2022-08-01T14:13:45;26.50;50.20
46117;DHT22;32591;48.102;11.772;2022-08-01T14:16:14;26.50;51.70
46117;DHT22;32591;48.102;11.772;2022-08-01T14:18:41;26.50;52.60
46117;DHT22;32591;48.102;11.772;2022-08-01T14:21:08;26.40;52.80
46117;DHT22;32591;48.102;11.772;2022-08-01T14:23:35;26.40;52.40
46117;DHT22;32591;48.102;11.772;2022-08-01T14:26:02;26.40;53.10
46117;DHT22;32591;48.102;11.772;2022-08-01T14:28:29;26.30;51.90
46117;DHT22;32591;48.102;11.772;2022-08-01T14:30:57;26.40;52.30
46117;DHT22;32591;48.102;11.772;2022-08-01T14:33:26;26.40;50.50
46117;DHT22;32591;48.102;11.772;2022-08-01T14:35:53;26.30;50.70
46117;DHT22;32591;48.102;11.772;2022-08-01T14:38:20;26.40;51.80
46117;DHT22;32591;48.102;11.772;2022-08-01T14:40:47;26.40;51.50
46117;DHT22;32591;48.102;11.772;2022-08-01T14:43:16;26.40;51.50
46117;DHT22;32591;48.102;11.772;2022-08-01T14:45:43;26.30;51.90
46117;DHT22;32591;48.102;11.772;2022-08-01T14:48:11;26.30;52.50
46117;DHT22;32591;48.102;11.772;2022-08-01T14:50:39;26.20;53.50
46117;DHT22;32591;48.102;11.772;2022-08-01T14:53:06;26.00;54.50
46117;DHT22;32591;48.102;11.772;2022-08-01T14:55:33;26.00;55.10
46117;DHT22;32591;48.102;11.772;2022-08-01T14:57:59;26.00;55.20
46117;DHT22;32591;48.102;11.772;2022-08-01T15:00:26;26.00;55.50
46117;DHT22;32591;48.102;11.772;2022-08-01T15:02:53;26.00;55.50
46117;DHT22;32591;48.102;11.772;2022-08-01T15:05:21;26.00;55.40
46117;DHT22;32591;48.102;11.772;2022-08-01T15:07:49;26.00;55.70
46117;DHT22;32591;48.102;11.772;2022-08-01T15:10:16;26.00;56.20
46117;DHT22;32591;48.102;11.772;2022-08-01T15:12:43;26.00;55.60
46117;DHT22;32591;48.102;11.772;2022-08-01T15:15:10;26.00;56.00
46117;DHT22;32591;48.102;11.772;2022-08-01T15:17:37;26.10;56.10
46117;DHT22;32591;48.102;11.772;2022-08-01T15:20:06;26.10;58.50
46117;DHT22;32591;48.102;11.772;2022-08-01T15:22:34;25.90;59.60
46117;DHT22;32591;48.102;11.772;2022-08-01T15:25:03;25.80;60.60
46117;DHT22;32591;48.102;11.772;2022-08-01T15:27:31;25.70;61.30
46117;DHT22;32591;48.102;11.772;2022-08-01T15:29:58;25.60;61.00
46117;DHT22;32591;48.102;11.772;2022-08-01T15:32:25;25.60;61.30
46117;DHT22;32591;48.102;11.772;2022-08-01T15:34:52;25.60;61.60
46117;DHT22;32591;48.102;11.772;2022-08-01T15:37:19;25.50;61.20